createdAt,value
2017-09-05T00:00:39.812Z,10.33
2017-09-05T00:01:45.919Z,10.23
2017-09-05T00:02:51.980Z,10.26
2017-09-05T00:03:57.686Z,10.23
2017-09-05T00:05:03.828Z,10.38
2017-09-05T00:06:10.013Z,10.38
2017-09-05T00:07:31.512Z,10.25
2017-09-05T00:08:50.472Z,10.12
2017-09-05T00:10:04.800Z,10.11
2017-09-05T00:11:27.054Z,10.19
2017-09-05T00:12:45.348Z,10.16
2017-09-05T00:14:09.580Z,10.13
2017-09-05T00:15:44.367Z,10.06
2017-09-05T00:17:05.780Z,10.21
2017-09-05T00:18:27.678Z,10.28
2017-09-05T00:19:45.738Z,10.31
2017-09-05T00:20:51.657Z,10.24
2017-09-05T00:21:59.117Z,10.19
2017-09-05T00:23:07.617Z,10.13
2017-09-05T00:24:13.750Z,10.11
2017-09-05T00:25:19.777Z,10.11
2017-09-05T00:26:26.367Z,10.11
2017-09-05T00:27:33.018Z,10.10
2017-09-05T00:28:38.969Z,10.18
2017-09-05T00:29:46.603Z,10.28
2017-09-05T00:30:53.422Z,10.17
2017-09-05T00:31:59.687Z,10.12
2017-09-05T00:33:05.751Z,10.04
2017-09-05T00:34:11.832Z,9.97
2017-09-05T00:35:18.856Z,9.87
2017-09-05T00:36:24.977Z,9.85
2017-09-05T00:37:31.861Z,9.84
2017-09-05T00:38:38.306Z,9.83
2017-09-05T00:39:45.093Z,9.83
2017-09-05T00:40:51.802Z,9.81
2017-09-05T00:41:58.872Z,9.80
2017-09-05T00:43:04.404Z,9.82
2017-09-05T00:44:10.149Z,9.84
2017-09-05T00:45:16.853Z,9.84
2017-09-05T00:46:23.572Z,9.84
2017-09-05T00:47:30.622Z,9.82
2017-09-05T00:48:37.820Z,9.79
2017-09-05T00:49:44.226Z,9.79
2017-09-05T00:50:49.941Z,9.86
2017-09-05T00:51:56.819Z,9.97
2017-09-05T00:53:02.918Z,10.03
2017-09-05T00:54:09.721Z,10.07
2017-09-05T00:55:15.779Z,10.15
2017-09-05T00:56:21.990Z,10.04
2017-09-05T00:57:27.833Z,9.98
2017-09-05T00:58:34.305Z,9.94
2017-09-05T00:59:41.276Z,9.81
2017-09-05T01:00:48.039Z,9.77
2017-09-05T01:01:54.164Z,9.73
2017-09-05T01:03:00.260Z,9.70
2017-09-05T01:04:06.838Z,9.69
2017-09-05T01:05:13.442Z,9.70
2017-09-05T01:06:18.619Z,9.75
2017-09-05T01:07:24.130Z,9.71
2017-09-05T01:08:32.372Z,9.74
2017-09-05T01:09:38.757Z,9.71
2017-09-05T01:10:44.526Z,9.69
2017-09-05T01:11:51.644Z,9.73
2017-09-05T01:12:58.835Z,9.70
2017-09-05T01:14:04.710Z,9.68
2017-09-05T01:15:11.388Z,9.71
2017-09-05T01:16:17.599Z,9.69
2017-09-05T01:17:23.779Z,9.84
2017-09-05T01:18:29.591Z,9.88
2017-09-05T01:19:35.048Z,9.81
2017-09-05T01:20:40.761Z,9.70
2017-09-05T01:21:45.974Z,9.64
2017-09-05T01:22:51.983Z,9.61
2017-09-05T01:23:58.183Z,9.62
2017-09-05T01:25:04.359Z,9.60
2017-09-05T01:26:10.480Z,9.58
2017-09-05T01:27:17.235Z,9.56
2017-09-05T01:28:23.518Z,9.56
2017-09-05T01:29:29.651Z,9.56
2017-09-05T01:30:35.763Z,9.56
2017-09-05T01:31:41.833Z,9.53
2017-09-05T01:32:47.932Z,9.52
2017-09-05T01:33:54.056Z,9.52
2017-09-05T01:35:00.159Z,9.57
2017-09-05T01:36:06.843Z,9.63
2017-09-05T01:37:13.233Z,9.63
2017-09-05T01:38:19.389Z,9.65
2017-09-05T01:39:25.523Z,9.65
2017-09-05T01:40:31.389Z,9.73
2017-09-05T01:41:37.393Z,9.93
2017-09-05T01:42:43.583Z,9.96
2017-09-05T01:43:49.701Z,9.82
2017-09-05T01:44:56.137Z,9.75
2017-09-05T01:46:03.221Z,9.77
2017-09-05T01:47:10.090Z,9.86
2017-09-05T01:48:17.105Z,9.87
2017-09-05T01:49:23.810Z,9.85
2017-09-05T01:50:30.391Z,9.72
2017-09-05T01:51:36.379Z,9.66
2017-09-05T01:52:43.524Z,9.66
2017-09-05T01:53:49.669Z,9.83
2017-09-05T01:54:55.978Z,9.84
2017-09-05T01:56:02.103Z,9.86
2017-09-05T01:57:08.289Z,9.73
2017-09-05T01:58:15.102Z,9.65
2017-09-05T01:59:21.197Z,9.50
2017-09-05T02:00:27.948Z,9.40
2017-09-05T02:01:34.445Z,9.34
2017-09-05T02:02:40.936Z,9.30
2017-09-05T02:03:46.449Z,9.29
2017-09-05T02:04:52.556Z,9.37
2017-09-05T02:05:59.164Z,9.35
2017-09-05T02:07:05.985Z,9.36
2017-09-05T02:08:12.707Z,9.33
2017-09-05T02:09:18.808Z,9.33
2017-09-05T02:10:25.671Z,9.28
2017-09-05T02:11:32.401Z,9.32
2017-09-05T02:12:38.525Z,9.27
2017-09-05T02:13:44.636Z,9.29
2017-09-05T02:14:50.720Z,9.21
2017-09-05T02:15:57.616Z,9.29
2017-09-05T02:17:03.670Z,9.51
2017-09-05T02:18:09.786Z,9.62
2017-09-05T02:19:16.244Z,9.45
2017-09-05T02:20:23.264Z,9.33
2017-09-05T02:21:30.088Z,9.14
2017-09-05T02:22:36.346Z,9.09
2017-09-05T02:23:42.447Z,9.09
2017-09-05T02:24:48.562Z,9.09
2017-09-05T02:25:54.664Z,9.03
2017-09-05T02:27:00.766Z,8.99
2017-09-05T02:28:07.464Z,8.97
2017-09-05T02:29:14.140Z,8.93
2017-09-05T02:30:21.106Z,8.82
2017-09-05T02:31:27.221Z,8.84
2017-09-05T02:32:33.416Z,8.90
2017-09-05T02:33:40.201Z,8.86
2017-09-05T02:34:46.467Z,8.86
2017-09-05T02:35:53.420Z,8.88
2017-09-05T02:36:59.910Z,8.90
2017-09-05T02:38:06.718Z,9.03
2017-09-05T02:39:12.855Z,9.03
2017-09-05T02:40:19.253Z,8.97
2017-09-05T02:41:25.372Z,9.00
2017-09-05T02:42:31.523Z,9.02
2017-09-05T02:43:37.715Z,9.03
2017-09-05T02:44:43.836Z,9.06
2017-09-05T02:45:50.703Z,9.05
2017-09-05T02:46:57.632Z,8.99
2017-09-05T02:48:03.712Z,8.99
2017-09-05T02:49:10.560Z,9.07
2017-09-05T02:50:16.837Z,9.15
2017-09-05T02:51:22.912Z,9.05
2017-09-05T02:52:29.011Z,8.98
2017-09-05T02:53:35.995Z,8.97
2017-09-05T02:54:42.175Z,9.13
2017-09-05T02:55:48.318Z,9.30
2017-09-05T02:56:54.489Z,9.21
2017-09-05T02:58:00.614Z,9.09
2017-09-05T02:59:07.509Z,9.10
2017-09-05T03:00:13.683Z,9.12
2017-09-05T03:01:20.350Z,9.15
2017-09-05T03:02:26.528Z,9.02
2017-09-05T03:03:32.667Z,8.98
2017-09-05T03:04:38.517Z,8.91
2017-09-05T03:05:45.230Z,9.01
2017-09-05T03:06:51.107Z,9.16
2017-09-05T03:07:57.361Z,9.01
2017-09-05T03:09:03.355Z,9.01
2017-09-05T03:10:10.992Z,9.03
2017-09-05T03:11:17.155Z,9.01
2017-09-05T03:12:23.027Z,9.13
2017-09-05T03:13:29.137Z,9.17
2017-09-05T03:14:35.326Z,9.16
2017-09-05T03:15:41.441Z,9.03
2017-09-05T03:16:48.107Z,8.99
2017-09-05T03:17:54.180Z,9.04
2017-09-05T03:19:00.367Z,9.05
2017-09-05T03:20:06.571Z,8.89
2017-09-05T03:21:13.497Z,8.87
2017-09-05T03:22:19.590Z,8.97
2017-09-05T03:23:26.458Z,8.84
2017-09-05T03:24:33.154Z,8.85
2017-09-05T03:25:39.341Z,9.05
2017-09-05T03:26:45.980Z,9.03
2017-09-05T03:27:52.167Z,8.84
2017-09-05T03:28:59.045Z,8.79
2017-09-05T03:30:05.184Z,8.93
2017-09-05T03:31:12.857Z,9.02
2017-09-05T03:32:19.727Z,8.90
2017-09-05T03:33:26.209Z,8.76
2017-09-05T03:34:32.044Z,8.66
2017-09-05T03:35:38.197Z,8.69
2017-09-05T03:36:47.373Z,8.66
2017-09-05T03:37:54.992Z,8.66
2017-09-05T03:39:01.454Z,8.59
2017-09-05T03:40:08.059Z,8.53
2017-09-05T03:41:14.693Z,8.57
2017-09-05T03:42:20.971Z,8.56
2017-09-05T03:43:27.323Z,8.54
2017-09-05T03:44:33.485Z,8.52
2017-09-05T03:45:40.554Z,8.55
2017-09-05T03:46:46.665Z,8.54
2017-09-05T03:47:53.692Z,8.41
2017-09-05T03:48:59.794Z,8.35
2017-09-05T03:50:06.716Z,8.37
2017-09-05T03:51:13.034Z,8.43
2017-09-05T03:52:20.035Z,8.66
2017-09-05T03:53:26.864Z,8.72
2017-09-05T03:54:33.086Z,8.66
2017-09-05T03:55:40.430Z,8.57
2017-09-05T03:56:47.231Z,8.58
2017-09-05T03:57:53.455Z,8.61
2017-09-05T03:59:00.471Z,8.52
2017-09-05T04:00:07.193Z,8.41
2017-09-05T04:01:14.485Z,8.39
2017-09-05T04:02:22.930Z,8.54
2017-09-05T04:03:29.251Z,8.49
2017-09-05T04:04:35.834Z,8.42
2017-09-05T04:05:43.670Z,8.37
2017-09-05T04:06:51.326Z,8.40
2017-09-05T04:07:57.828Z,8.57
2017-09-05T04:09:03.646Z,8.63
2017-09-05T04:10:10.956Z,8.61
2017-09-05T04:11:18.600Z,8.56
2017-09-05T04:12:25.600Z,8.51
2017-09-05T04:13:34.000Z,8.47
2017-09-05T04:14:41.005Z,8.45
2017-09-05T04:15:48.273Z,8.44
2017-09-05T04:16:54.530Z,8.46
2017-09-05T04:18:00.792Z,8.51
2017-09-05T04:19:07.006Z,8.52
2017-09-05T04:20:13.456Z,8.54
2017-09-05T04:21:20.333Z,8.55
2017-09-05T04:22:27.807Z,8.69
2017-09-05T04:23:34.042Z,8.65
2017-09-05T04:24:40.328Z,8.62
2017-09-05T04:25:46.509Z,8.62
2017-09-05T04:26:53.431Z,8.72
2017-09-05T04:28:00.476Z,8.88
2017-09-05T04:29:07.909Z,8.95
2017-09-05T04:30:14.324Z,9.05
2017-09-05T04:31:20.459Z,9.03
2017-09-05T04:32:27.344Z,9.03
2017-09-05T04:33:34.169Z,9.03
2017-09-05T04:34:40.380Z,9.04
2017-09-05T04:35:47.322Z,8.96
2017-09-05T04:36:53.609Z,8.90
2017-09-05T04:37:59.813Z,8.79
2017-09-05T04:39:05.321Z,8.72
2017-09-05T04:40:11.509Z,8.73
2017-09-05T04:41:18.475Z,8.72
2017-09-05T04:42:25.380Z,8.81
2017-09-05T04:43:31.506Z,8.82
2017-09-05T04:44:39.459Z,8.77
2017-09-05T04:45:45.766Z,8.73
2017-09-05T04:46:52.558Z,8.70
2017-09-05T04:47:58.713Z,8.71
2017-09-05T04:49:04.919Z,8.72
2017-09-05T04:50:12.327Z,8.77
2017-09-05T04:51:18.517Z,8.83
2017-09-05T04:52:25.335Z,8.95
2017-09-05T04:53:32.381Z,8.94
2017-09-05T04:54:39.285Z,9.03
2017-09-05T04:55:46.323Z,9.20
2017-09-05T04:56:52.690Z,9.35
2017-09-05T04:57:59.083Z,9.39
2017-09-05T04:59:05.303Z,9.43
2017-09-05T05:00:11.283Z,9.47
2017-09-05T05:01:19.032Z,9.51
2017-09-05T05:02:26.466Z,9.40
2017-09-05T05:03:32.872Z,9.37
2017-09-05T05:04:40.121Z,9.33
2017-09-05T05:05:46.322Z,9.35
2017-09-05T05:06:54.184Z,9.30
2017-09-05T05:08:00.479Z,9.25
2017-09-05T05:09:07.244Z,9.28
2017-09-05T05:10:14.948Z,9.38
2017-09-05T05:11:21.729Z,9.43
2017-09-05T05:12:28.699Z,9.58
2017-09-05T05:13:34.923Z,9.66
2017-09-05T05:14:41.329Z,9.62
2017-09-05T05:15:49.269Z,9.52
2017-09-05T05:16:56.117Z,9.46
2017-09-05T05:18:03.224Z,9.44
2017-09-05T05:19:09.540Z,9.43
2017-09-05T05:20:15.737Z,9.49
2017-09-05T05:21:22.032Z,9.48
2017-09-05T05:22:31.385Z,9.49
2017-09-05T05:23:37.703Z,9.53
2017-09-05T05:24:44.882Z,9.51
2017-09-05T05:25:51.986Z,9.55
2017-09-05T05:26:58.230Z,9.60
2017-09-05T05:28:04.424Z,9.66
2017-09-05T05:29:11.334Z,9.73
2017-09-05T05:30:18.413Z,9.78
2017-09-05T05:31:26.364Z,9.90
2017-09-05T05:32:34.089Z,9.98
2017-09-05T05:33:41.012Z,9.97
2017-09-05T05:34:47.943Z,10.08
2017-09-05T05:35:55.063Z,10.12
2017-09-05T05:37:02.440Z,10.30
2017-09-05T05:38:11.516Z,10.41
2017-09-05T05:39:18.377Z,10.51
2017-09-05T05:40:26.155Z,10.60
2017-09-05T05:41:32.350Z,10.55
2017-09-05T05:42:39.580Z,10.63
2017-09-05T05:43:46.738Z,10.73
2017-09-05T05:44:54.100Z,10.80
2017-09-05T05:46:03.122Z,10.81
2017-09-05T05:47:10.102Z,10.85
2017-09-05T05:48:17.752Z,10.90
2017-09-05T05:49:24.417Z,10.90
2017-09-05T05:50:30.847Z,10.94
2017-09-05T05:51:37.295Z,11.07
2017-09-05T05:52:43.857Z,11.16
2017-09-05T05:53:50.901Z,11.28
2017-09-05T05:54:57.415Z,11.35
2017-09-05T05:56:04.128Z,11.36
2017-09-05T05:57:11.257Z,11.39
2017-09-05T05:58:17.667Z,11.45
2017-09-05T05:59:24.247Z,11.42
2017-09-05T06:00:32.414Z,11.41
2017-09-05T06:01:38.514Z,11.54
2017-09-05T06:02:46.405Z,11.60
2017-09-05T06:03:53.896Z,11.65
2017-09-05T06:05:00.226Z,11.65
2017-09-05T06:06:06.843Z,11.77
2017-09-05T06:07:13.095Z,11.84
2017-09-05T06:08:20.937Z,11.93
2017-09-05T06:09:28.240Z,12.04
2017-09-05T06:10:34.433Z,12.00
2017-09-05T06:11:42.506Z,12.10
2017-09-05T06:12:48.816Z,12.19
2017-09-05T06:13:55.147Z,12.21
2017-09-05T06:15:02.581Z,12.19
2017-09-05T06:16:09.013Z,12.25
2017-09-05T06:17:16.033Z,12.24
2017-09-05T06:18:23.658Z,12.28
2017-09-05T06:19:29.954Z,12.39
2017-09-05T06:20:37.054Z,12.44
2017-09-05T06:21:44.242Z,12.48
2017-09-05T06:22:50.580Z,12.44
2017-09-05T06:23:56.748Z,12.49
2017-09-05T06:25:04.216Z,12.57
2017-09-05T06:26:11.188Z,12.71
2017-09-05T06:27:17.746Z,12.68
2017-09-05T06:28:24.160Z,12.61
2017-09-05T06:29:31.089Z,12.77
2017-09-05T06:30:37.198Z,12.81
2017-09-05T06:31:44.944Z,12.85
2017-09-05T06:32:51.405Z,13.04
2017-09-05T06:33:57.556Z,13.16
2017-09-05T06:35:04.591Z,13.17
2017-09-05T06:36:10.779Z,13.20
2017-09-05T06:37:18.207Z,13.27
2017-09-05T06:38:24.609Z,13.35
2017-09-05T06:39:31.066Z,13.50
2017-09-05T06:40:38.106Z,13.40
2017-09-05T06:41:45.119Z,13.41
2017-09-05T06:42:52.048Z,13.50
2017-09-05T06:43:59.690Z,13.49
2017-09-05T06:45:07.056Z,13.61
2017-09-05T06:46:13.317Z,13.73
2017-09-05T06:47:20.152Z,13.68
2017-09-05T06:48:26.990Z,13.46
2017-09-05T06:49:33.295Z,13.64
2017-09-05T06:50:40.160Z,13.72
2017-09-05T06:51:46.617Z,13.85
2017-09-05T06:52:52.645Z,13.83
2017-09-05T06:53:58.960Z,13.90
2017-09-05T06:55:05.379Z,13.92
2017-09-05T06:56:13.021Z,13.95
2017-09-05T06:57:20.261Z,14.03
2017-09-05T06:58:26.664Z,14.17
2017-09-05T06:59:33.227Z,14.16
2017-09-05T07:00:41.267Z,14.13
2017-09-05T07:01:48.126Z,14.04
2017-09-05T07:02:54.889Z,14.15
2017-09-05T07:04:01.188Z,14.27
2017-09-05T07:05:07.698Z,14.22
2017-09-05T07:06:14.097Z,14.27
2017-09-05T07:07:20.766Z,14.34
2017-09-05T07:08:27.305Z,14.45
2017-09-05T07:09:34.149Z,14.56
2017-09-05T07:10:40.337Z,14.58
2017-09-05T07:11:47.208Z,14.59
2017-09-05T07:12:53.383Z,14.65
2017-09-05T07:14:00.040Z,14.66
2017-09-05T07:15:07.483Z,14.78
2017-09-05T07:16:14.401Z,14.76
2017-09-05T07:17:20.770Z,14.69
2017-09-05T07:18:27.447Z,14.67
2017-09-05T07:19:33.630Z,14.79
2017-09-05T07:20:39.965Z,14.76
2017-09-05T07:21:46.422Z,14.81
2017-09-05T07:22:53.463Z,14.89
2017-09-05T07:24:00.867Z,15.04
2017-09-05T07:25:07.540Z,15.18
2017-09-05T07:26:14.586Z,15.21
2017-09-05T07:27:21.091Z,15.24
2017-09-05T07:28:27.844Z,15.25
2017-09-05T07:29:34.880Z,15.36
2017-09-05T07:30:41.490Z,15.47
2017-09-05T07:31:48.522Z,15.63
2017-09-05T07:32:56.514Z,15.75
2017-09-05T07:34:02.967Z,15.75
2017-09-05T07:35:09.121Z,15.65
2017-09-05T07:36:15.238Z,15.77
2017-09-05T07:37:21.496Z,15.81
2017-09-05T07:38:29.022Z,15.87
2017-09-05T07:39:35.959Z,15.93
2017-09-05T07:40:43.066Z,15.98
2017-09-05T07:41:49.811Z,16.02
2017-09-05T07:42:56.721Z,16.10
2017-09-05T07:44:02.825Z,16.20
2017-09-05T07:45:09.993Z,16.28
2017-09-05T07:46:18.024Z,16.44
2017-09-05T07:47:24.848Z,16.43
2017-09-05T07:48:33.001Z,16.46
2017-09-05T07:49:39.074Z,16.53
2017-09-05T07:50:45.296Z,16.66
2017-09-05T07:51:53.035Z,16.71
2017-09-05T07:53:00.910Z,16.83
2017-09-05T07:54:07.191Z,16.89
2017-09-05T07:55:13.419Z,16.81
2017-09-05T07:56:20.777Z,16.88
2017-09-05T07:57:27.679Z,16.93
2017-09-05T07:58:34.496Z,16.96
2017-09-05T07:59:40.841Z,16.97
2017-09-05T08:00:46.695Z,17.01
2017-09-05T08:01:53.539Z,17.04
2017-09-05T08:02:59.857Z,17.15
2017-09-05T08:04:06.999Z,17.32
2017-09-05T08:05:13.312Z,17.27
2017-09-05T08:06:20.160Z,17.44
2017-09-05T08:07:26.957Z,17.52
2017-09-05T08:08:34.710Z,17.66
2017-09-05T08:09:40.914Z,17.72
2017-09-05T08:10:47.450Z,17.81
2017-09-05T08:11:53.833Z,17.92
2017-09-05T08:13:01.129Z,18.07
2017-09-05T08:14:08.410Z,18.02
2017-09-05T08:15:14.872Z,18.04
2017-09-05T08:16:21.020Z,18.12
2017-09-05T08:17:26.986Z,18.04
2017-09-05T08:18:33.045Z,18.23
2017-09-05T08:19:39.868Z,18.10
2017-09-05T08:20:45.873Z,18.10
2017-09-05T08:21:52.085Z,18.22
2017-09-05T08:22:58.895Z,18.34
2017-09-05T08:24:05.762Z,18.46
2017-09-05T08:25:12.874Z,18.58
2017-09-05T08:26:19.289Z,18.58
2017-09-05T08:27:26.235Z,18.63
2017-09-05T08:28:32.412Z,18.58
2017-09-05T08:29:38.528Z,18.55
2017-09-05T08:30:44.610Z,18.66
2017-09-05T08:31:50.937Z,18.77
2017-09-05T08:32:58.495Z,18.79
2017-09-05T08:34:04.800Z,18.93
2017-09-05T08:35:10.813Z,18.93
2017-09-05T08:36:17.343Z,19.07
2017-09-05T08:37:23.738Z,19.17
2017-09-05T08:38:31.473Z,19.31
2017-09-05T08:39:38.182Z,19.29
2017-09-05T08:40:44.220Z,19.36
2017-09-05T08:41:50.305Z,19.44
2017-09-05T08:42:56.315Z,19.45
2017-09-05T08:44:02.926Z,19.58
2017-09-05T08:45:08.932Z,19.58
2017-09-05T08:46:15.963Z,19.70
2017-09-05T08:47:23.626Z,19.42
2017-09-05T08:48:30.580Z,19.57
2017-09-05T08:49:38.801Z,19.71
2017-09-05T08:50:44.965Z,19.66
2017-09-05T08:51:51.879Z,19.78
2017-09-05T08:52:57.956Z,19.83
2017-09-05T08:54:03.873Z,19.94
2017-09-05T08:55:10.650Z,19.89
2017-09-05T08:56:18.431Z,19.89
2017-09-05T08:57:28.390Z,19.99
2017-09-05T08:58:37.897Z,19.80
2017-09-05T08:59:45.530Z,20.07
2017-09-05T09:00:52.383Z,20.00
2017-09-05T09:01:58.641Z,19.90
2017-09-05T09:03:04.868Z,19.99
2017-09-05T09:04:11.831Z,20.02
2017-09-05T09:05:17.801Z,20.15
2017-09-05T09:06:25.119Z,20.26
2017-09-05T09:07:31.063Z,20.21
2017-09-05T09:08:37.112Z,20.15
2017-09-05T09:09:43.046Z,20.26
2017-09-05T09:10:49.149Z,20.33
2017-09-05T09:11:55.077Z,20.31
2017-09-05T09:13:01.619Z,20.41
2017-09-05T09:14:08.265Z,20.38
2017-09-05T09:15:14.727Z,20.58
2017-09-05T09:16:21.429Z,20.67
2017-09-05T09:17:27.417Z,20.76
2017-09-05T09:18:33.326Z,20.69
2017-09-05T09:19:39.323Z,20.71
2017-09-05T09:20:45.339Z,20.78
2017-09-05T09:21:51.930Z,20.88
2017-09-05T09:22:59.709Z,20.96
2017-09-05T09:24:05.712Z,21.10
2017-09-05T09:25:12.213Z,21.08
2017-09-05T09:26:18.242Z,20.99
2017-09-05T09:27:24.225Z,20.80
2017-09-05T09:28:30.499Z,20.84
2017-09-05T09:29:36.379Z,20.92
2017-09-05T09:30:42.571Z,21.05
2017-09-05T09:31:48.768Z,21.25
2017-09-05T09:32:54.776Z,21.37
2017-09-05T09:34:00.715Z,21.42
2017-09-05T09:35:06.732Z,21.16
2017-09-05T09:36:12.687Z,21.23
2017-09-05T09:37:19.772Z,21.19
2017-09-05T09:38:25.723Z,21.13
2017-09-05T09:39:31.581Z,21.38
2017-09-05T09:40:37.449Z,21.46
2017-09-05T09:41:43.634Z,21.60
2017-09-05T09:42:50.633Z,21.60
2017-09-05T09:43:56.932Z,21.55
2017-09-05T09:45:03.376Z,21.58
2017-09-05T09:46:10.096Z,21.40
2017-09-05T09:47:17.917Z,21.44
2017-09-05T09:48:25.996Z,21.60
2017-09-05T09:49:35.094Z,21.68
2017-09-05T09:50:41.831Z,21.64
2017-09-05T09:51:47.740Z,21.54
2017-09-05T09:52:53.816Z,21.70
2017-09-05T09:54:00.351Z,21.80
2017-09-05T09:55:07.851Z,21.78
2017-09-05T09:56:13.856Z,21.77
2017-09-05T09:57:19.791Z,21.76
2017-09-05T09:58:25.716Z,21.82
2017-09-05T09:59:32.242Z,21.80
2017-09-05T10:00:38.306Z,21.94
2017-09-05T10:01:44.179Z,21.87
2017-09-05T10:02:50.195Z,21.97
2017-09-05T10:03:56.981Z,22.03
2017-09-05T10:05:03.095Z,22.03
2017-09-05T10:06:10.117Z,21.84
2017-09-05T10:07:16.673Z,21.77
2017-09-05T10:08:22.621Z,21.74
2017-09-05T10:09:28.477Z,21.94
2017-09-05T10:10:34.503Z,22.04
2017-09-05T10:11:40.980Z,21.87
2017-09-05T10:12:46.839Z,21.94
2017-09-05T10:13:52.687Z,22.07
2017-09-05T10:14:58.621Z,21.81
2017-09-05T10:16:04.658Z,22.07
2017-09-05T10:17:10.615Z,22.23
2017-09-05T10:18:17.231Z,22.20
2017-09-05T10:19:24.072Z,22.20
2017-09-05T10:20:29.915Z,22.36
2017-09-05T10:21:35.982Z,22.22
2017-09-05T10:22:42.485Z,22.05
2017-09-05T10:23:48.501Z,22.11
2017-09-05T10:24:54.512Z,21.98
2017-09-05T10:26:00.365Z,22.13
2017-09-05T10:27:06.347Z,22.19
2017-09-05T10:28:12.257Z,22.29
2017-09-05T10:29:18.714Z,22.25
2017-09-05T10:30:24.544Z,22.43
2017-09-05T10:31:30.492Z,22.60
2017-09-05T10:32:37.684Z,22.63
2017-09-05T10:33:43.620Z,22.56
2017-09-05T10:34:49.656Z,22.49
2017-09-05T10:35:56.508Z,22.55
2017-09-05T10:37:02.496Z,22.57
2017-09-05T10:38:08.463Z,22.59
2017-09-05T10:39:14.600Z,22.51
2017-09-05T10:40:20.626Z,22.39
2017-09-05T10:41:26.562Z,22.25
2017-09-05T10:42:32.468Z,22.20
2017-09-05T10:43:38.441Z,22.06
2017-09-05T10:44:44.435Z,22.16
2017-09-05T10:45:50.417Z,22.12
2017-09-05T10:46:56.452Z,22.34
2017-09-05T10:48:02.467Z,22.57
2017-09-05T10:49:08.463Z,22.66
2017-09-05T10:50:14.773Z,22.70
2017-09-05T10:51:20.984Z,22.83
2017-09-05T10:52:27.299Z,22.78
2017-09-05T10:53:33.401Z,22.96
2017-09-05T10:54:39.352Z,23.18
2017-09-05T10:55:46.122Z,23.23
2017-09-05T10:56:52.114Z,23.35
2017-09-05T10:57:58.121Z,23.38
2017-09-05T10:59:04.126Z,23.34
2017-09-05T11:00:10.471Z,23.45
2017-09-05T11:01:18.693Z,23.49
2017-09-05T11:02:24.615Z,23.60
2017-09-05T11:03:31.438Z,23.37
2017-09-05T11:04:37.458Z,23.36
2017-09-05T11:05:44.478Z,23.52
2017-09-05T11:06:51.455Z,23.39
2017-09-05T11:07:57.693Z,22.92
2017-09-05T11:09:04.529Z,23.08
2017-09-05T11:10:11.458Z,23.19
2017-09-05T11:11:17.463Z,23.23
2017-09-05T11:12:24.912Z,23.28
2017-09-05T11:13:31.020Z,23.24
2017-09-05T11:14:37.009Z,23.37
2017-09-05T11:15:43.022Z,23.18
2017-09-05T11:16:50.049Z,23.31
2017-09-05T11:17:56.371Z,23.25
2017-09-05T11:19:03.040Z,22.96
2017-09-05T11:20:09.759Z,23.16
2017-09-05T11:21:16.320Z,23.36
2017-09-05T11:22:22.446Z,23.14
2017-09-05T11:23:28.483Z,23.45
2017-09-05T11:24:36.589Z,23.65
2017-09-05T11:25:42.597Z,23.74
2017-09-05T11:26:49.525Z,23.58
2017-09-05T11:27:56.773Z,23.58
2017-09-05T11:29:02.708Z,23.38
2017-09-05T11:30:08.705Z,23.41
2017-09-05T11:31:16.314Z,23.69
2017-09-05T11:32:22.410Z,23.79
2017-09-05T11:33:28.656Z,23.78
2017-09-05T11:34:35.444Z,23.53
2017-09-05T11:35:42.367Z,23.62
2017-09-05T11:36:50.010Z,23.86
2017-09-05T11:37:56.156Z,23.74
2017-09-05T11:39:02.536Z,23.85
2017-09-05T11:40:10.614Z,23.71
2017-09-05T11:41:16.586Z,23.60
2017-09-05T11:42:22.520Z,23.39
2017-09-05T11:43:28.500Z,23.45
2017-09-05T11:44:34.500Z,23.20
2017-09-05T11:45:43.062Z,23.55
2017-09-05T11:46:50.299Z,23.73
2017-09-05T11:47:56.764Z,23.84
2017-09-05T11:49:03.537Z,23.90
2017-09-05T11:50:09.636Z,24.00
2017-09-05T11:51:16.436Z,24.15
2017-09-05T11:52:22.420Z,24.27
2017-09-05T11:53:28.738Z,24.35
2017-09-05T11:54:35.563Z,24.36
2017-09-05T11:55:41.508Z,24.37
2017-09-05T11:56:47.516Z,24.49
2017-09-05T11:57:53.429Z,24.37
2017-09-05T11:58:59.420Z,24.51
2017-09-05T12:00:08.887Z,24.41
2017-09-05T12:01:15.628Z,24.48
2017-09-05T12:02:22.352Z,24.48
2017-09-05T12:03:29.184Z,24.19
2017-09-05T12:04:35.283Z,24.29
2017-09-05T12:05:41.369Z,24.41
2017-09-05T12:06:47.384Z,24.29
2017-09-05T12:07:53.657Z,24.24
2017-09-05T12:08:59.739Z,23.84
2017-09-05T12:10:05.828Z,23.60
2017-09-05T12:11:12.539Z,24.07
2017-09-05T12:12:18.546Z,24.42
2017-09-05T12:13:24.646Z,24.66
2017-09-05T12:14:30.935Z,24.90
2017-09-05T12:15:36.863Z,25.07
2017-09-05T12:16:42.869Z,24.98
2017-09-05T12:17:48.981Z,25.11
2017-09-05T12:18:54.792Z,25.28
2017-09-05T12:20:00.976Z,25.29
2017-09-05T12:21:06.971Z,25.28
2017-09-05T12:22:13.955Z,25.02
2017-09-05T12:23:20.239Z,24.82
2017-09-05T12:24:27.269Z,24.95
2017-09-05T12:25:35.208Z,24.91
2017-09-05T12:26:42.037Z,24.68
2017-09-05T12:27:49.181Z,24.67
2017-09-05T12:28:55.378Z,24.46
2017-09-05T12:30:00.788Z,24.58
2017-09-05T12:31:06.852Z,24.38
2017-09-05T12:32:12.269Z,24.01
2017-09-05T12:33:18.438Z,24.06
2017-09-05T12:34:25.584Z,23.96
2017-09-05T12:35:31.429Z,24.16
2017-09-05T12:36:36.871Z,24.25
2017-09-05T12:37:42.363Z,24.32
2017-09-05T12:38:48.388Z,24.54
2017-09-05T12:39:54.681Z,24.51
2017-09-05T12:41:00.718Z,24.54
2017-09-05T12:42:10.303Z,24.56
2017-09-05T12:43:15.893Z,24.65
2017-09-05T12:44:21.691Z,24.42
2017-09-05T12:45:27.948Z,24.35
2017-09-05T12:46:34.423Z,24.35
2017-09-05T12:47:41.213Z,24.32
2017-09-05T12:48:48.050Z,24.40
2017-09-05T12:49:54.252Z,24.49
2017-09-05T12:51:00.951Z,24.55
2017-09-05T12:52:07.313Z,24.43
2017-09-05T12:53:13.437Z,24.15
2017-09-05T12:54:21.173Z,24.21
2017-09-05T12:55:27.668Z,24.41
2017-09-05T12:56:33.824Z,24.13
2017-09-05T12:57:41.331Z,24.28
2017-09-05T12:58:48.255Z,24.42
2017-09-05T12:59:54.563Z,24.51
2017-09-05T13:01:00.775Z,24.52
2017-09-05T13:02:07.007Z,24.43
2017-09-05T13:03:13.944Z,24.52
2017-09-05T13:04:21.183Z,24.56
2017-09-05T13:05:27.965Z,24.50
2017-09-05T13:06:34.280Z,24.70
2017-09-05T13:07:40.590Z,24.60
2017-09-05T13:08:50.290Z,24.02
2017-09-05T13:09:58.151Z,24.23
2017-09-05T13:11:05.527Z,24.54
2017-09-05T13:12:12.796Z,24.71
2017-09-05T13:13:18.957Z,24.70
2017-09-05T13:14:26.333Z,24.07
2017-09-05T13:15:33.080Z,23.88
2017-09-05T13:16:39.271Z,24.04
2017-09-05T13:17:45.466Z,24.15
2017-09-05T13:18:51.790Z,24.48
2017-09-05T13:19:58.381Z,24.52
2017-09-05T13:21:04.614Z,24.66
2017-09-05T13:22:10.823Z,24.73
2017-09-05T13:23:17.428Z,24.83
2017-09-05T13:24:23.676Z,24.72
2017-09-05T13:25:30.996Z,24.63
2017-09-05T13:26:37.311Z,24.73
2017-09-05T13:27:43.828Z,24.59
2017-09-05T13:28:51.164Z,24.66
2017-09-05T13:29:57.700Z,24.60
2017-09-05T13:31:04.403Z,24.47
2017-09-05T13:32:10.703Z,24.58
2017-09-05T13:33:17.635Z,24.27
2017-09-05T13:34:24.669Z,24.37
2017-09-05T13:35:33.952Z,24.48
2017-09-05T13:36:40.411Z,24.07
2017-09-05T13:37:47.088Z,24.27
2017-09-05T13:38:54.283Z,24.23
2017-09-05T13:40:01.251Z,24.37
2017-09-05T13:41:08.270Z,24.57
2017-09-05T13:42:14.764Z,24.52
2017-09-05T13:43:21.105Z,24.38
2017-09-05T13:44:28.475Z,24.37
2017-09-05T13:45:34.959Z,24.17
2017-09-05T13:46:41.159Z,24.03
2017-09-05T13:47:48.130Z,23.58
2017-09-05T13:48:54.702Z,23.60
2017-09-05T13:50:01.045Z,23.34
2017-09-05T13:51:07.929Z,23.56
2017-09-05T13:52:14.189Z,23.72
2017-09-05T13:53:25.233Z,24.06
2017-09-05T13:54:35.372Z,24.23
2017-09-05T13:55:41.583Z,24.37
2017-09-05T13:56:48.281Z,24.19
2017-09-05T13:57:54.618Z,24.39
2017-09-05T13:59:02.156Z,24.85
2017-09-05T14:00:08.758Z,25.03
2017-09-05T14:01:15.189Z,25.01
2017-09-05T14:02:21.781Z,25.21
2017-09-05T14:03:28.199Z,25.28
2017-09-05T14:04:34.534Z,25.44
2017-09-05T14:05:40.725Z,25.45
2017-09-05T14:06:47.251Z,25.40
2017-09-05T14:07:53.483Z,25.43
2017-09-05T14:08:59.887Z,25.50
2017-09-05T14:10:07.428Z,25.31
2017-09-05T14:11:14.636Z,25.11
2017-09-05T14:12:20.875Z,24.91
2017-09-05T14:13:27.183Z,24.79
2017-09-05T14:14:33.287Z,24.79
2017-09-05T14:15:41.646Z,24.94
2017-09-05T14:16:48.306Z,25.20
2017-09-05T14:17:56.078Z,25.37
2017-09-05T14:19:02.553Z,25.60
2017-09-05T14:20:08.974Z,25.56
2017-09-05T14:21:16.048Z,25.24
2017-09-05T14:22:22.794Z,25.23
2017-09-05T14:23:29.513Z,25.08
2017-09-05T14:24:35.931Z,25.49
2017-09-05T14:25:44.597Z,25.61
2017-09-05T14:26:50.908Z,25.90
2017-09-05T14:27:57.116Z,26.32
2017-09-05T14:29:04.146Z,26.00
2017-09-05T14:30:10.973Z,25.52